createdAt,value
2023-04-26T00:01:43.207Z,77.82
2023-04-26T00:04:10.278Z,78.40
2023-04-26T00:06:37.572Z,76.66
2023-04-26T00:09:05.266Z,74.55
2023-04-26T00:11:32.141Z,77.77
2023-04-26T00:13:59.751Z,76.83
2023-04-26T00:16:26.668Z,76.39
2023-04-26T00:18:54.721Z,78.48
2023-04-26T00:21:21.807Z,78.32
2023-04-26T00:23:48.773Z,75.46
2023-04-26T00:26:15.674Z,75.99
2023-04-26T00:28:42.662Z,75.78
2023-04-26T00:31:16.869Z,77.96
2023-04-26T00:33:44.368Z,76.81
2023-04-26T00:36:11.418Z,77.07
2023-04-26T00:38:38.228Z,75.06
2023-04-26T00:41:05.652Z,76.18
2023-04-26T00:43:32.494Z,73.65
2023-04-26T00:45:59.183Z,75.94
2023-04-26T00:48:26.467Z,74.57
2023-04-26T00:50:53.366Z,73.27
2023-04-26T00:53:21.061Z,73.28
2023-04-26T00:55:48.266Z,75.85
2023-04-26T00:58:15.142Z,76.12
2023-04-26T01:00:41.815Z,76.84
2023-04-26T01:03:08.950Z,76.27
2023-04-26T01:05:36.938Z,72.46
2023-04-26T01:08:04.956Z,75.32
2023-04-26T01:10:35.448Z,75.02
2023-04-26T01:13:06.091Z,72.42
2023-04-26T01:15:33.716Z,71.66
2023-04-26T01:18:00.764Z,70.32
2023-04-26T01:20:27.742Z,70.40
2023-04-26T01:22:54.637Z,72.93
2023-04-26T01:25:21.641Z,72.06
2023-04-26T01:27:48.496Z,73.81
2023-04-26T01:30:15.173Z,74.23
2023-04-26T01:32:42.071Z,74.11
2023-04-26T01:35:09.529Z,70.76
2023-04-26T01:37:36.491Z,73.30
2023-04-26T01:40:06.552Z,72.43
2023-04-26T01:42:33.463Z,72.14
2023-04-26T01:45:00.362Z,72.87
2023-04-26T01:47:27.766Z,72.34
2023-04-26T01:49:54.708Z,75.09
2023-04-26T01:52:22.839Z,75.36
2023-04-26T01:54:49.751Z,74.86
2023-04-26T01:57:16.763Z,72.56
2023-04-26T01:59:43.682Z,71.72
2023-04-26T02:02:10.777Z,71.79
2023-04-26T02:04:37.832Z,73.67
2023-04-26T02:07:04.704Z,76.63
2023-04-26T02:09:31.435Z,73.69
2023-04-26T02:11:58.287Z,72.15
2023-04-26T02:14:25.083Z,73.12
2023-04-26T02:16:52.103Z,72.57
2023-04-26T02:19:19.162Z,73.74
2023-04-26T02:21:56.469Z,72.12
2023-04-26T02:24:23.970Z,76.42
2023-04-26T02:26:52.008Z,76.36
2023-04-26T02:29:21.219Z,77.43
2023-04-26T02:31:53.815Z,74.37
2023-04-26T02:34:20.866Z,75.97
2023-04-26T02:36:48.808Z,76.05
2023-04-26T02:39:15.790Z,75.43
2023-04-26T02:41:42.640Z,74.93
2023-04-26T02:44:09.357Z,75.90
2023-04-26T02:46:36.329Z,70.52
2023-04-26T02:49:03.346Z,72.19
2023-04-26T02:51:30.277Z,72.06
2023-04-26T02:53:57.148Z,74.83
2023-04-26T02:56:24.165Z,73.30
2023-04-26T02:58:51.646Z,75.37
2023-04-26T03:01:19.051Z,71.87
2023-04-26T03:03:45.982Z,70.08
2023-04-26T03:06:12.968Z,71.57
2023-04-26T03:08:39.624Z,74.43
2023-04-26T03:11:07.026Z,71.56
2023-04-26T03:13:33.907Z,71.80
2023-04-26T03:16:00.867Z,71.37
2023-04-26T03:18:27.780Z,73.99
2023-04-26T03:20:54.647Z,73.87
2023-04-26T03:23:24.468Z,72.67
2023-04-26T03:25:51.944Z,76.00
2023-04-26T03:28:18.819Z,73.52
2023-04-26T03:30:46.056Z,69.54
2023-04-26T03:33:13.816Z,70.40
2023-04-26T03:35:40.902Z,73.31
2023-04-26T03:38:07.792Z,70.80
2023-04-26T03:40:34.714Z,68.74
2023-04-26T03:43:01.788Z,68.81
2023-04-26T03:45:28.756Z,70.90
2023-04-26T03:47:56.913Z,69.87
2023-04-26T03:50:23.812Z,72.34
2023-04-26T03:52:50.616Z,72.73
2023-04-26T03:55:17.545Z,71.30
2023-04-26T03:57:44.392Z,71.94
2023-04-26T04:00:14.476Z,69.86
2023-04-26T04:02:41.971Z,71.15
2023-04-26T04:05:09.626Z,71.03
2023-04-26T04:07:36.764Z,67.00
2023-04-26T04:10:04.199Z,65.99
2023-04-26T04:12:31.156Z,64.35
2023-04-26T04:14:58.055Z,65.39
2023-04-26T04:17:24.948Z,63.51
2023-04-26T04:19:51.829Z,63.46
2023-04-26T04:22:18.680Z,61.74
2023-04-26T04:24:45.747Z,63.47
2023-04-26T04:27:12.622Z,68.99
2023-04-26T04:29:41.078Z,67.42
2023-04-26T04:32:08.212Z,66.85
2023-04-26T04:34:36.415Z,66.63
2023-04-26T04:37:04.461Z,66.41
2023-04-26T04:39:31.469Z,64.64
2023-04-26T04:41:58.843Z,63.93
2023-04-26T04:44:27.150Z,63.44
2023-04-26T04:46:54.062Z,61.88
2023-04-26T04:49:21.071Z,62.77
2023-04-26T04:51:48.215Z,64.94
2023-04-26T04:54:16.808Z,62.29
2023-04-26T04:56:44.699Z,61.12
2023-04-26T04:59:11.996Z,63.27
2023-04-26T05:01:38.938Z,59.80
2023-04-26T05:04:07.008Z,56.71
2023-04-26T05:06:34.198Z,53.96
2023-04-26T05:09:01.892Z,52.72
2023-04-26T05:11:28.775Z,52.29
2023-04-26T05:13:55.966Z,51.27
2023-04-26T05:16:23.112Z,48.55
2023-04-26T05:18:50.093Z,48.96
2023-04-26T05:21:17.191Z,48.79
2023-04-26T05:23:44.099Z,50.58
2023-04-26T05:26:15.825Z,51.40
2023-04-26T05:28:42.969Z,49.25
2023-04-26T05:31:11.424Z,49.58
2023-04-26T05:33:38.684Z,47.69
2023-04-26T05:36:06.084Z,44.92
2023-04-26T05:38:32.983Z,45.73
2023-04-26T05:40:59.822Z,46.15
2023-04-26T05:43:26.658Z,45.54
2023-04-26T05:45:54.629Z,46.83
2023-04-26T05:48:23.006Z,45.06
2023-04-26T05:50:50.760Z,47.40
2023-04-26T05:53:19.249Z,46.79
2023-04-26T05:55:46.247Z,47.23
2023-04-26T05:58:13.214Z,45.31
2023-04-26T06:00:40.152Z,44.28
2023-04-26T06:03:07.362Z,47.20
2023-04-26T06:05:34.560Z,46.29
2023-04-26T06:08:01.875Z,47.57
2023-04-26T06:10:29.371Z,47.15
2023-04-26T06:12:56.453Z,46.76
2023-04-26T06:15:23.330Z,47.81
2023-04-26T06:17:50.246Z,47.84
2023-04-26T06:20:17.148Z,47.67
2023-04-26T06:22:44.021Z,48.15
2023-04-26T06:25:11.050Z,47.37
2023-04-26T06:27:39.413Z,46.97
2023-04-26T06:30:08.044Z,48.37
2023-04-26T06:32:35.083Z,46.23
2023-04-26T06:35:02.169Z,44.96
2023-04-26T06:37:29.045Z,46.17
2023-04-26T06:39:55.952Z,44.06
2023-04-26T06:42:22.841Z,44.28
2023-04-26T06:44:49.746Z,45.10
2023-04-26T06:47:16.603Z,44.29
2023-04-26T06:49:43.601Z,44.88
2023-04-26T06:52:10.539Z,44.73
2023-04-26T06:54:45.932Z,43.97
2023-04-26T06:57:16.898Z,44.92
2023-04-26T06:59:43.560Z,44.17
2023-04-26T07:02:10.585Z,44.86
2023-04-26T07:04:37.750Z,42.51
2023-04-26T07:07:04.854Z,39.48
2023-04-26T07:09:31.896Z,40.39
2023-04-26T07:11:58.850Z,39.22
2023-04-26T07:14:25.707Z,38.06
2023-04-26T07:16:52.552Z,39.32
2023-04-26T07:19:19.928Z,37.71
2023-04-26T07:21:46.770Z,39.96
2023-04-26T07:24:13.891Z,38.42
2023-04-26T07:26:41.566Z,38.30
2023-04-26T07:29:08.450Z,37.01
2023-04-26T07:31:36.130Z,40.07
2023-04-26T07:34:03.247Z,36.92
2023-04-26T07:36:30.177Z,37.79
2023-04-26T07:38:58.042Z,39.66
2023-04-26T07:41:24.920Z,34.94
2023-04-26T07:43:51.996Z,33.82
2023-04-26T07:46:19.225Z,33.77
2023-04-26T07:48:46.142Z,34.41
2023-04-26T07:51:13.597Z,33.82
2023-04-26T07:53:41.360Z,35.11
2023-04-26T07:56:09.107Z,33.61
2023-04-26T07:58:37.042Z,35.60
2023-04-26T08:01:04.395Z,36.01
2023-04-26T08:03:31.730Z,33.91
2023-04-26T08:06:02.307Z,35.32
2023-04-26T08:08:29.365Z,36.07
2023-04-26T08:10:56.583Z,35.28
2023-04-26T08:13:23.446Z,35.96
2023-04-26T08:15:50.435Z,37.04
2023-04-26T08:18:17.767Z,36.66
2023-04-26T08:20:44.771Z,35.27
2023-04-26T08:23:11.700Z,35.46
2023-04-26T08:25:38.670Z,37.14
2023-04-26T08:28:05.662Z,35.54
2023-04-26T08:30:32.623Z,35.95
2023-04-26T08:32:59.556Z,37.82
2023-04-26T08:35:26.551Z,34.26
2023-04-26T08:37:53.406Z,34.31
2023-04-26T08:40:24.999Z,33.45
2023-04-26T08:42:53.740Z,31.89
2023-04-26T08:45:21.747Z,32.33
2023-04-26T08:47:50.592Z,30.84
2023-04-26T08:50:21.081Z,32.04
2023-04-26T08:52:50.528Z,31.85
2023-04-26T08:55:18.664Z,31.58
2023-04-26T08:57:49.951Z,33.17
2023-04-26T09:00:18.369Z,30.62
2023-04-26T09:02:50.329Z,31.32
2023-04-26T09:05:17.661Z,31.90
2023-04-26T09:07:48.198Z,31.30
2023-04-26T09:10:22.560Z,35.41
2023-04-26T09:12:53.761Z,36.78
2023-04-26T09:15:24.758Z,35.64
2023-04-26T09:17:52.356Z,35.24
2023-04-26T09:20:31.303Z,30.69
2023-04-26T09:23:06.844Z,32.14
2023-04-26T09:25:34.135Z,30.30
2023-04-26T09:28:02.225Z,31.40
2023-04-26T09:30:29.259Z,32.98
2023-04-26T09:32:58.463Z,32.80
2023-04-26T09:35:29.338Z,30.94
2023-04-26T09:38:09.701Z,29.17
2023-04-26T09:40:41.902Z,29.92
2023-04-26T09:43:12.623Z,29.95
2023-04-26T09:45:46.655Z,30.78
2023-04-26T09:48:18.030Z,32.03
2023-04-26T09:50:48.236Z,33.45
2023-04-26T09:53:31.212Z,36.43
2023-04-26T09:56:15.867Z,35.62
2023-04-26T09:58:52.610Z,35.71
2023-04-26T10:01:20.335Z,35.83
2023-04-26T10:03:47.789Z,37.97
2023-04-26T10:06:15.060Z,38.43
2023-04-26T10:08:42.167Z,36.88
2023-04-26T10:11:13.125Z,34.11
2023-04-26T10:13:41.745Z,36.14
2023-04-26T10:16:10.237Z,34.65
2023-04-26T10:18:37.860Z,35.20
2023-04-26T10:21:20.798Z,33.70
2023-04-26T10:23:49.292Z,33.00
2023-04-26T10:26:49.745Z,32.83
2023-04-26T10:29:16.693Z,32.43
2023-04-26T10:32:02.390Z,31.42
2023-04-26T10:34:33.370Z,30.89
2023-04-26T10:37:10.401Z,31.18
2023-04-26T10:39:38.236Z,33.01
2023-04-26T10:42:37.851Z,33.95
2023-04-26T10:45:26.081Z,31.75
2023-04-26T10:48:27.965Z,30.91
2023-04-26T10:51:12.219Z,33.62
2023-04-26T10:53:44.917Z,34.64
2023-04-26T10:56:41.297Z,33.57
2023-04-26T11:01:42.200Z,33.07
2023-04-26T11:04:10.698Z,34.41
2023-04-26T11:07:07.744Z,31.68
2023-04-26T11:09:42.530Z,31.56
2023-04-26T11:12:14.001Z,31.78
2023-04-26T11:14:46.343Z,31.44
2023-04-26T11:17:13.413Z,31.18
2023-04-26T11:19:41.651Z,32.09
2023-04-26T11:22:08.854Z,32.36
2023-04-26T11:24:44.947Z,33.11
2023-04-26T11:27:12.304Z,35.10
2023-04-26T11:29:39.568Z,35.07
2023-04-26T11:32:07.220Z,33.23
2023-04-26T11:34:35.676Z,32.88
2023-04-26T11:37:05.119Z,32.55
2023-04-26T11:39:36.166Z,33.49
2023-04-26T11:42:10.298Z,33.66
2023-04-26T11:44:37.889Z,32.52
2023-04-26T11:47:06.220Z,31.06
2023-04-26T11:49:33.915Z,32.22
2023-04-26T11:52:01.723Z,31.42
2023-04-26T11:54:33.498Z,30.06
2023-04-26T11:57:00.501Z,31.61
2023-04-26T11:59:29.613Z,34.20
2023-04-26T12:02:00.741Z,35.11
2023-04-26T12:04:30.423Z,35.87
2023-04-26T12:06:58.153Z,35.92
2023-04-26T12:09:28.097Z,34.52
2023-04-26T12:12:02.230Z,35.98
2023-04-26T12:14:37.291Z,35.04
2023-04-26T12:17:06.409Z,35.59
2023-04-26T12:19:40.309Z,35.87
2023-04-26T12:22:07.934Z,34.75
2023-04-26T12:24:37.098Z,34.42
2023-04-26T12:27:06.255Z,31.80
2023-04-26T12:29:33.212Z,32.10
2023-04-26T12:32:00.512Z,32.42
2023-04-26T12:34:27.550Z,32.91
2023-04-26T12:36:55.022Z,33.08
2023-04-26T12:39:21.897Z,32.33
2023-04-26T12:41:49.364Z,31.92
2023-04-26T12:44:16.350Z,32.36
2023-04-26T12:46:43.321Z,29.73
2023-04-26T12:49:10.358Z,30.09
2023-04-26T12:51:37.214Z,30.11
2023-04-26T12:54:04.268Z,31.50
2023-04-26T12:56:31.213Z,29.29
2023-04-26T12:58:58.127Z,31.28
2023-04-26T13:01:25.196Z,30.43
2023-04-26T13:03:52.360Z,32.68
2023-04-26T13:06:19.357Z,32.79
2023-04-26T13:08:46.256Z,32.18
2023-04-26T13:11:13.144Z,32.78
2023-04-26T13:13:43.708Z,35.87
2023-04-26T13:16:13.046Z,33.99
2023-04-26T13:18:40.674Z,33.42
2023-04-26T13:21:07.880Z,33.04
2023-04-26T13:23:34.913Z,33.69
2023-04-26T13:26:02.069Z,35.41
2023-04-26T13:28:28.936Z,34.86
2023-04-26T13:30:56.192Z,36.04
2023-04-26T13:33:23.274Z,36.37
2023-04-26T13:35:50.184Z,35.62
2023-04-26T13:38:17.483Z,34.95
2023-04-26T13:40:44.898Z,33.62
2023-04-26T13:43:11.835Z,34.09
2023-04-26T13:45:38.952Z,34.51
2023-04-26T13:48:06.055Z,32.24
2023-04-26T13:50:32.990Z,32.46
2023-04-26T13:53:00.135Z,30.26
2023-04-26T13:55:27.044Z,32.02
2023-04-26T13:57:53.944Z,30.50
2023-04-26T14:00:21.252Z,30.62
2023-04-26T14:02:49.442Z,31.73
2023-04-26T14:05:16.761Z,31.89
2023-04-26T14:07:43.881Z,32.95
2023-04-26T14:10:11.150Z,32.38
2023-04-26T14:12:38.049Z,34.89
2023-04-26T14:15:06.354Z,35.33
2023-04-26T14:17:33.665Z,37.38
2023-04-26T14:20:00.833Z,37.26
2023-04-26T14:22:27.845Z,35.86
2023-04-26T14:24:54.729Z,36.07
2023-04-26T14:27:21.592Z,34.38
2023-04-26T14:29:48.432Z,34.80
2023-04-26T14:32:15.392Z,33.92
2023-04-26T14:34:43.190Z,33.32
2023-04-26T14:37:10.597Z,31.51
2023-04-26T14:39:37.680Z,33.46
2023-04-26T14:42:04.924Z,34.23
2023-04-26T14:44:31.812Z,33.69
2023-04-26T14:46:58.745Z,32.68
2023-04-26T14:49:25.905Z,32.11
2023-04-26T14:51:53.655Z,33.43
2023-04-26T14:54:21.350Z,32.83
2023-04-26T14:56:48.914Z,34.48
2023-04-26T14:59:16.301Z,32.76
2023-04-26T15:01:43.438Z,32.40
2023-04-26T15:04:10.526Z,34.13
2023-04-26T15:06:37.552Z,33.80
2023-04-26T15:09:04.735Z,33.00
2023-04-26T15:11:31.592Z,33.92
2023-04-26T15:13:58.433Z,34.38
2023-04-26T15:16:25.375Z,33.41
2023-04-26T15:18:52.381Z,33.90
2023-04-26T15:21:19.931Z,33.26
2023-04-26T15:23:46.840Z,32.48
2023-04-26T15:26:14.520Z,34.44
2023-04-26T15:28:41.465Z,36.06
2023-04-26T15:31:09.836Z,35.41
2023-04-26T15:33:37.013Z,36.14
2023-04-26T15:36:04.175Z,37.88
2023-04-26T15:38:31.066Z,37.19
2023-04-26T15:40:57.917Z,36.09
2023-04-26T15:43:24.864Z,36.54
2023-04-26T15:45:51.932Z,36.27
2023-04-26T15:48:18.937Z,36.16
2023-04-26T15:50:46.421Z,36.94
2023-04-26T15:53:13.313Z,37.05
2023-04-26T15:55:40.213Z,36.42
2023-04-26T15:58:07.257Z,34.76
2023-04-26T16:00:34.408Z,33.51
2023-04-26T16:03:02.190Z,35.16
2023-04-26T16:05:29.299Z,36.84
2023-04-26T16:07:56.466Z,36.21
2023-04-26T16:10:24.058Z,36.76
2023-04-26T16:12:51.131Z,35.18
2023-04-26T16:15:18.020Z,36.06
2023-04-26T16:17:45.060Z,35.76
2023-04-26T16:20:12.181Z,35.63
2023-04-26T16:22:39.128Z,33.79
2023-04-26T16:25:07.168Z,34.40
2023-04-26T16:27:34.301Z,34.77
2023-04-26T16:30:01.390Z,34.08
2023-04-26T16:32:30.731Z,35.66
2023-04-26T16:34:57.629Z,35.45
2023-04-26T16:37:24.566Z,36.06
2023-04-26T16:39:55.783Z,37.00
2023-04-26T16:42:22.850Z,36.15
2023-04-26T16:44:49.741Z,36.49
2023-04-26T16:47:16.619Z,35.46
2023-04-26T16:49:43.570Z,37.49
2023-04-26T16:52:10.488Z,36.28
2023-04-26T16:54:37.470Z,36.21
2023-04-26T16:57:04.689Z,35.90
2023-04-26T16:59:31.611Z,35.97
2023-04-26T17:01:58.614Z,34.96
2023-04-26T17:04:26.479Z,35.28
2023-04-26T17:06:54.698Z,36.83
2023-04-26T17:09:21.571Z,36.74
2023-04-26T17:11:49.997Z,37.36
2023-04-26T17:14:16.915Z,37.08
2023-04-26T17:16:44.215Z,37.19
2023-04-26T17:19:11.387Z,36.66
2023-04-26T17:21:38.257Z,36.20
2023-04-26T17:24:05.340Z,36.56
2023-04-26T17:26:32.256Z,35.89
2023-04-26T17:28:59.228Z,36.05
2023-04-26T17:31:26.342Z,36.24
2023-04-26T17:33:53.269Z,35.59
2023-04-26T17:36:20.974Z,36.22
2023-04-26T17:38:48.690Z,36.01
2023-04-26T17:41:18.203Z,37.32
2023-04-26T17:43:45.518Z,36.68
2023-04-26T17:46:12.591Z,37.70
2023-04-26T17:48:39.762Z,38.09
2023-04-26T17:51:06.843Z,35.92
2023-04-26T17:53:36.897Z,35.96
2023-04-26T17:56:07.372Z,35.68
2023-04-26T17:58:34.529Z,38.06
2023-04-26T18:01:01.635Z,36.41
2023-04-26T18:03:31.702Z,36.47
2023-04-26T18:05:58.789Z,36.84
2023-04-26T18:08:25.978Z,36.43
2023-04-26T18:10:54.150Z,35.91
2023-04-26T18:13:21.179Z,34.27
2023-04-26T18:15:48.370Z,34.18
2023-04-26T18:18:15.364Z,33.76
2023-04-26T18:20:42.364Z,33.57
2023-04-26T18:23:09.234Z,35.28
2023-04-26T18:25:36.426Z,34.99
2023-04-26T18:28:04.520Z,35.71
2023-04-26T18:30:34.223Z,35.46
2023-04-26T18:33:01.181Z,35.50
2023-04-26T18:35:28.161Z,34.60
2023-04-26T18:37:55.117Z,35.16
2023-04-26T18:40:22.065Z,36.37
2023-04-26T18:42:48.921Z,34.77
2023-04-26T18:45:16.055Z,35.44
2023-04-26T18:47:42.943Z,34.79
2023-04-26T18:50:10.092Z,34.33
2023-04-26T18:52:39.687Z,34.36
2023-04-26T18:55:07.770Z,36.56
2023-04-26T18:57:34.612Z,37.94
2023-04-26T19:00:01.844Z,37.80
2023-04-26T19:02:28.908Z,38.09
2023-04-26T19:04:56.083Z,40.48
2023-04-26T19:07:23.762Z,40.00
2023-04-26T19:09:54.702Z,39.79
2023-04-26T19:12:22.484Z,38.38
2023-04-26T19:14:49.339Z,36.41
2023-04-26T19:17:16.369Z,36.22
2023-04-26T19:19:43.442Z,36.25
2023-04-26T19:22:10.463Z,37.23
2023-04-26T19:24:37.406Z,37.37
2023-04-26T19:27:06.593Z,37.20
2023-04-26T19:29:33.452Z,37.29
2023-04-26T19:32:00.533Z,37.71
2023-04-26T19:34:28.109Z,38.41
2023-04-26T19:36:55.069Z,38.96
2023-04-26T19:39:23.553Z,39.04
2023-04-26T19:41:51.406Z,39.04
2023-04-26T19:44:20.438Z,38.52
2023-04-26T19:46:47.366Z,38.87
2023-04-26T19:49:14.334Z,41.97
2023-04-26T19:51:41.232Z,41.40
2023-04-26T19:54:08.070Z,43.02
2023-04-26T19:56:34.706Z,43.41
2023-04-26T19:59:01.579Z,43.35
2023-04-26T20:01:28.710Z,44.13
2023-04-26T20:03:55.983Z,43.35
2023-04-26T20:06:22.953Z,42.02
2023-04-26T20:08:49.834Z,41.01
2023-04-26T20:11:17.610Z,40.16
2023-04-26T20:13:44.743Z,40.85
2023-04-26T20:16:12.852Z,41.97
2023-04-26T20:18:39.991Z,42.14
2023-04-26T20:21:06.915Z,42.60
2023-04-26T20:23:34.024Z,42.05
2023-04-26T20:26:01.068Z,40.22
2023-04-26T20:28:27.952Z,39.83
2023-04-26T20:30:54.977Z,38.94
2023-04-26T20:33:21.938Z,39.25
2023-04-26T20:35:49.434Z,39.86
2023-04-26T20:38:16.310Z,40.77
2023-04-26T20:40:43.361Z,40.88
2023-04-26T20:43:12.103Z,39.14
2023-04-26T20:45:41.029Z,40.51
2023-04-26T20:48:08.325Z,39.96
2023-04-26T20:50:36.603Z,39.20
2023-04-26T20:53:04.368Z,38.35
2023-04-26T20:55:31.251Z,39.21
2023-04-26T20:57:58.114Z,39.05
2023-04-26T21:00:25.075Z,38.78
2023-04-26T21:02:52.182Z,38.81
2023-04-26T21:05:19.093Z,37.95
2023-04-26T21:07:45.969Z,38.01
2023-04-26T21:10:12.883Z,38.50
2023-04-26T21:12:41.825Z,38.45
2023-04-26T21:15:09.128Z,38.16
2023-04-26T21:17:36.486Z,38.28
2023-04-26T21:20:04.379Z,37.02
2023-04-26T21:22:31.266Z,37.45
2023-04-26T21:24:58.124Z,37.61
2023-04-26T21:27:25.100Z,36.74
2023-04-26T21:29:51.972Z,38.77
2023-04-26T21:32:18.804Z,40.80
2023-04-26T21:34:45.554Z,40.78
2023-04-26T21:37:12.444Z,40.92
2023-04-26T21:39:39.358Z,44.10
2023-04-26T21:42:06.324Z,41.49
2023-04-26T21:44:33.160Z,41.65
2023-04-26T21:46:59.964Z,42.45
2023-04-26T21:49:26.940Z,42.91
2023-04-26T21:51:53.625Z,42.28
2023-04-26T21:54:20.564Z,41.87
2023-04-26T21:56:47.404Z,42.71
2023-04-26T21:59:14.758Z,42.88
2023-04-26T22:01:41.636Z,45.74
2023-04-26T22:04:08.412Z,43.61
2023-04-26T22:06:35.299Z,41.07
2023-04-26T22:09:01.972Z,42.11
2023-04-26T22:11:28.801Z,44.69
2023-04-26T22:13:55.582Z,45.79
2023-04-26T22:16:22.490Z,44.55
2023-04-26T22:18:49.446Z,46.05
2023-04-26T22:21:16.279Z,47.61
2023-04-26T22:23:42.944Z,45.67
2023-04-26T22:26:09.773Z,44.61
2023-04-26T22:28:36.466Z,44.53
2023-04-26T22:31:03.528Z,42.15
2023-04-26T22:33:30.403Z,41.03
2023-04-26T22:35:58.203Z,41.85
2023-04-26T22:38:25.612Z,43.45
2023-04-26T22:40:52.754Z,44.44
2023-04-26T22:43:19.660Z,45.35
2023-04-26T22:45:46.541Z,45.44
2023-04-26T22:48:13.515Z,48.04
2023-04-26T22:50:40.704Z,50.72
2023-04-26T22:53:08.351Z,50.99
2023-04-26T22:55:35.241Z,51.89
2023-04-26T22:58:02.137Z,51.56
2023-04-26T23:00:29.013Z,52.29
2023-04-26T23:02:56.087Z,51.70
2023-04-26T23:05:23.061Z,52.34
2023-04-26T23:07:49.982Z,52.19
2023-04-26T23:10:16.896Z,51.20
2023-04-26T23:12:43.793Z,48.40
2023-04-26T23:15:11.748Z,45.71
2023-04-26T23:17:39.008Z,45.55
2023-04-26T23:20:12.365Z,44.54
2023-04-26T23:22:40.604Z,45.64
2023-04-26T23:25:08.949Z,45.98
2023-04-26T23:27:36.216Z,44.90
2023-04-26T23:30:03.742Z,46.18
2023-04-26T23:32:31.118Z,47.34
2023-04-26T23:34:58.018Z,47.41
2023-04-26T23:37:25.050Z,47.69
2023-04-26T23:39:52.305Z,47.55
2023-04-26T23:42:19.175Z,47.06
2023-04-26T23:44:46.168Z,45.12
2023-04-26T23:47:13.102Z,44.24
2023-04-26T23:49:39.967Z,44.61
2023-04-26T23:52:07.328Z,45.57
2023-04-26T23:54:34.234Z,46.04
2023-04-26T23:57:01.228Z,45.87
2023-04-26T23:59:28.124Z,46.71
